sensor_id;sensor_type;location;lat;lon;timestamp;temperature;humidity
76750;DHT22;66447;35.844;14.468;2023-04-03T00:04:27;14.58;118.99
76750;DHT22;66447;35.844;14.468;2023-04-03T00:19:28;14.34;118.99
76750;DHT22;66447;35.844;14.468;2023-04-03T00:34:30;14.35;118.99
76750;DHT22;66447;35.844;14.468;2023-04-03T00:49:31;14.23;118.99
76750;DHT22;66447;35.844;14.468;2023-04-03T01:04:34;14.43;118.99
76750;DHT22;66447;35.844;14.468;2023-04-03T01:19:42;13.12;118.99
76750;DHT22;66447;35.844;14.468;2023-04-03T01:34:47;13.31;118.99
76750;DHT22;66447;35.844;14.468;2023-04-03T01:49:49;13.48;118.99
76750;DHT22;66447;35.844;14.468;2023-04-03T02:04:50;12.28;118.99
76750;DHT22;66447;35.844;14.468;2023-04-03T02:19:51;13.24;118.99
76750;DHT22;66447;35.844;14.468;2023-04-03T02:34:52;13.04;118.99
76750;DHT22;66447;35.844;14.468;2023-04-03T02:49:53;13.51;118.99
76750;DHT22;66447;35.844;14.468;2023-04-03T03:04:54;13.75;118.99
76750;DHT22;66447;35.844;14.468;2023-04-03T03:19:56;13.46;118.99
76750;DHT22;66447;35.844;14.468;2023-04-03T03:34:57;13.63;118.99
76750;DHT22;66447;35.844;14.468;2023-04-03T03:49:58;13.24;118.99
76750;DHT22;66447;35.844;14.468;2023-04-03T04:04:59;13.32;118.99
76750;DHT22;66447;35.844;14.468;2023-04-03T04:20:01;12.91;118.99
76750;DHT22;66447;35.844;14.468;2023-04-03T04:35:03;12.61;118.99
76750;DHT22;66447;35.844;14.468;2023-04-03T04:50:05;12.32;118.99
76750;DHT22;66447;35.844;14.468;2023-04-03T05:05:07;12.88;118.99
76750;DHT22;66447;35.844;14.468;2023-04-03T05:20:09;12.94;118.99
76750;DHT22;66447;35.844;14.468;2023-04-03T05:35:10;13.08;118.99
76750;DHT22;66447;35.844;14.468;2023-04-03T05:50:11;13.27;118.99
76750;DHT22;66447;35.844;14.468;2023-04-03T06:05:13;15.37;118.99
76750;DHT22;66447;35.844;14.468;2023-04-03T06:20:15;16.01;118.99
76750;DHT22;66447;35.844;14.468;2023-04-03T06:35:16;17.16;118.99
76750;DHT22;66447;35.844;14.468;2023-04-03T06:50:18;18.10;118.99
76750;DHT22;66447;35.844;14.468;2023-04-03T07:05:19;16.28;118.99
76750;DHT22;66447;35.844;14.468;2023-04-03T07:20:21;17.76;118.99
76750;DHT22;66447;35.844;14.468;2023-04-03T07:35:22;18.52;118.99
76750;DHT22;66447;35.844;14.468;2023-04-03T07:50:24;17.33;118.99
76750;DHT22;66447;35.844;14.468;2023-04-03T08:05:25;19.00;118.99
76750;DHT22;66447;35.844;14.468;2023-04-03T08:20:28;19.41;118.99
76750;DHT22;66447;35.844;14.468;2023-04-03T08:35:29;20.11;118.99
76750;DHT22;66447;35.844;14.468;2023-04-03T08:50:36;17.79;118.99
76750;DHT22;66447;35.844;14.468;2023-04-03T09:35:45;20.96;118.99
76750;DHT22;66447;35.844;14.468;2023-04-03T10:06:22;20.04;118.99
76750;DHT22;66447;35.844;14.468;2023-04-03T10:21:52;18.35;118.99
76750;DHT22;66447;35.844;14.468;2023-04-03T10:37:05;18.98;118.99
76750;DHT22;66447;35.844;14.468;2023-04-03T11:07:47;17.59;118.99
76750;DHT22;66447;35.844;14.468;2023-04-03T11:22:57;20.98;118.99
76750;DHT22;66447;35.844;14.468;2023-04-03T11:38:01;17.94;118.99
76750;DHT22;66447;35.844;14.468;2023-04-03T11:53:27;16.82;118.99
76750;DHT22;66447;35.844;14.468;2023-04-03T12:23:35;19.15;118.99
76750;DHT22;66447;35.844;14.468;2023-04-03T12:38:55;17.53;118.99
76750;DHT22;66447;35.844;14.468;2023-04-03T12:54:12;17.95;118.99
76750;DHT22;66447;35.844;14.468;2023-04-03T13:09:25;17.31;118.99
76750;DHT22;66447;35.844;14.468;2023-04-03T13:24:30;18.66;118.99
76750;DHT22;66447;35.844;14.468;2023-04-03T13:39:35;18.91;118.99
76750;DHT22;66447;35.844;14.468;2023-04-03T13:54:39;18.52;118.99
76750;DHT22;66447;35.844;14.468;2023-04-03T14:09:40;17.99;118.99
76750;DHT22;66447;35.844;14.468;2023-04-03T14:24:42;18.95;118.99
76750;DHT22;66447;35.844;14.468;2023-04-03T14:39:45;17.96;118.99
76750;DHT22;66447;35.844;14.468;2023-04-03T14:54:48;18.86;118.99
76750;DHT22;66447;35.844;14.468;2023-04-03T15:09:50;18.85;118.99
76750;DHT22;66447;35.844;14.468;2023-04-03T15:24:51;17.36;118.99
76750;DHT22;66447;35.844;14.468;2023-04-03T15:39:52;17.10;118.99
76750;DHT22;66447;35.844;14.468;2023-04-03T15:54:53;17.45;118.99
76750;DHT22;66447;35.844;14.468;2023-04-03T16:09:54;17.31;118.99
76750;DHT22;66447;35.844;14.468;2023-04-03T16:24:56;16.89;118.99
76750;DHT22;66447;35.844;14.468;2023-04-03T16:39:56;16.17;118.99
76750;DHT22;66447;35.844;14.468;2023-04-03T16:54:58;16.03;118.99
76750;DHT22;66447;35.844;14.468;2023-04-03T17:10:00;15.57;118.99
76750;DHT22;66447;35.844;14.468;2023-04-03T17:25:01;15.57;118.99
76750;DHT22;66447;35.844;14.468;2023-04-03T17:40:02;15.84;118.99
76750;DHT22;66447;35.844;14.468;2023-04-03T17:55:27;16.29;118.99
76750;DHT22;66447;35.844;14.468;2023-04-03T18:10:42;16.36;118.99
76750;DHT22;66447;35.844;14.468;2023-04-03T18:25:45;15.73;118.99
76750;DHT22;66447;35.844;14.468;2023-04-03T18:40:46;16.04;118.99
76750;DHT22;66447;35.844;14.468;2023-04-03T18:55:49;15.89;118.99
76750;DHT22;66447;35.844;14.468;2023-04-03T19:10:50;15.75;118.99
76750;DHT22;66447;35.844;14.468;2023-04-03T19:26:06;16.17;118.99
76750;DHT22;66447;35.844;14.468;2023-04-03T19:41:13;15.83;118.99
76750;DHT22;66447;35.844;14.468;2023-04-03T19:56:15;15.74;118.99
76750;DHT22;66447;35.844;14.468;2023-04-03T20:11:16;15.92;118.99
76750;DHT22;66447;35.844;14.468;2023-04-03T20:26:22;15.74;118.99
76750;DHT22;66447;35.844;14.468;2023-04-03T20:41:24;15.83;118.99
76750;DHT22;66447;35.844;14.468;2023-04-03T20:56:29;15.45;118.99
76750;DHT22;66447;35.844;14.468;2023-04-03T21:27:11;15.25;118.99
76750;DHT22;66447;35.844;14.468;2023-04-03T21:42:12;15.89;118.99
76750;DHT22;66447;35.844;14.468;2023-04-03T21:57:13;15.21;118.99
76750;DHT22;66447;35.844;14.468;2023-04-03T22:12:14;15.55;118.99
76750;DHT22;66447;35.844;14.468;2023-04-03T22:27:16;15.44;118.99
76750;DHT22;66447;35.844;14.468;2023-04-03T22:42:17;15.27;118.99
76750;DHT22;66447;35.844;14.468;2023-04-03T22:57:18;15.16;118.99
76750;DHT22;66447;35.844;14.468;2023-04-03T23:12:19;15.31;118.99
76750;DHT22;66447;35.844;14.468;2023-04-03T23:27:20;15.52;118.99
76750;DHT22;66447;35.844;14.468;2023-04-03T23:42:21;15.04;118.99
76750;DHT22;66447;35.844;14.468;2023-04-03T23:57:23;15.07;118.99
